sensor_id;sensor_type;location;lat;lon;timestamp;P1;durP1;ratioP1;P2;durP2;ratioP2
71187;SDS011;58893;53.130;8.158;2023-04-24T00:00:54;5.50;;;3.17;;
71187;SDS011;58893;53.130;8.158;2023-04-24T00:03:24;4.47;;;3.00;;
71187;SDS011;58893;53.130;8.158;2023-04-24T00:05:52;3.40;;;2.43;;
71187;SDS011;58893;53.130;8.158;2023-04-24T00:08:21;3.13;;;2.67;;
71187;SDS011;58893;53.130;8.158;2023-04-24T00:10:48;2.53;;;2.17;;
71187;SDS011;58893;53.130;8.158;2023-04-24T00:13:14;1.60;;;1.40;;
71187;SDS011;58893;53.130;8.158;2023-04-24T00:15:40;2.00;;;1.70;;
71187;SDS011;58893;53.130;8.158;2023-04-24T00:18:05;4.03;;;1.07;;
71187;SDS011;58893;53.130;8.158;2023-04-24T00:20:31;2.50;;;1.00;;
71187;SDS011;58893;53.130;8.158;2023-04-24T00:23:00;0.90;;;0.87;;
71187;SDS011;58893;53.130;8.158;2023-04-24T00:25:26;1.30;;;1.20;;
71187;SDS011;58893;53.130;8.158;2023-04-24T00:27:52;1.20;;;1.10;;
71187;SDS011;58893;53.130;8.158;2023-04-24T00:30:17;0.87;;;0.87;;
71187;SDS011;58893;53.130;8.158;2023-04-24T00:32:43;1.73;;;1.30;;
71187;SDS011;58893;53.130;8.158;2023-04-24T00:35:08;0.80;;;0.80;;
71187;SDS011;58893;53.130;8.158;2023-04-24T00:37:36;1.07;;;0.93;;
71187;SDS011;58893;53.130;8.158;2023-04-24T00:40:01;1.17;;;1.07;;
71187;SDS011;58893;53.130;8.158;2023-04-24T00:42:28;1.63;;;0.90;;
71187;SDS011;58893;53.130;8.158;2023-04-24T00:44:53;1.73;;;1.33;;
71187;SDS011;58893;53.130;8.158;2023-04-24T00:47:19;1.40;;;1.20;;
71187;SDS011;58893;53.130;8.158;2023-04-24T00:49:46;1.00;;;1.00;;
71187;SDS011;58893;53.130;8.158;2023-04-24T00:52:12;1.70;;;1.30;;
71187;SDS011;58893;53.130;8.158;2023-04-24T00:54:42;8.17;;;1.30;;
71187;SDS011;58893;53.130;8.158;2023-04-24T00:57:10;1.70;;;1.60;;
71187;SDS011;58893;53.130;8.158;2023-04-24T00:59:35;1.50;;;1.40;;
71187;SDS011;58893;53.130;8.158;2023-04-24T01:02:01;6.93;;;1.50;;
71187;SDS011;58893;53.130;8.158;2023-04-24T01:04:28;1.20;;;1.10;;
71187;SDS011;58893;53.130;8.158;2023-04-24T01:06:54;1.70;;;1.50;;
71187;SDS011;58893;53.130;8.158;2023-04-24T01:09:21;1.80;;;1.70;;
71187;SDS011;58893;53.130;8.158;2023-04-24T01:11:48;2.83;;;1.87;;
71187;SDS011;58893;53.130;8.158;2023-04-24T01:14:15;3.27;;;1.50;;
71187;SDS011;58893;53.130;8.158;2023-04-24T01:16:40;2.23;;;1.60;;
71187;SDS011;58893;53.130;8.158;2023-04-24T01:19:06;1.30;;;1.20;;
71187;SDS011;58893;53.130;8.158;2023-04-24T01:21:34;1.87;;;1.37;;
71187;SDS011;58893;53.130;8.158;2023-04-24T01:24:02;2.20;;;1.87;;
71187;SDS011;58893;53.130;8.158;2023-04-24T01:26:29;1.60;;;1.50;;
71187;SDS011;58893;53.130;8.158;2023-04-24T01:28:55;1.63;;;1.53;;
71187;SDS011;58893;53.130;8.158;2023-04-24T01:31:21;1.93;;;1.70;;
71187;SDS011;58893;53.130;8.158;2023-04-24T01:33:47;1.80;;;1.40;;
71187;SDS011;58893;53.130;8.158;2023-04-24T01:36:13;1.33;;;1.23;;
71187;SDS011;58893;53.130;8.158;2023-04-24T01:38:39;1.70;;;1.60;;
71187;SDS011;58893;53.130;8.158;2023-04-24T01:41:05;2.17;;;1.67;;
71187;SDS011;58893;53.130;8.158;2023-04-24T01:43:30;2.30;;;1.60;;
71187;SDS011;58893;53.130;8.158;2023-04-24T01:45:57;1.87;;;1.50;;
71187;SDS011;58893;53.130;8.158;2023-04-24T01:48:22;2.73;;;1.80;;
71187;SDS011;58893;53.130;8.158;2023-04-24T01:50:48;1.70;;;1.53;;
71187;SDS011;58893;53.130;8.158;2023-04-24T01:53:14;4.73;;;1.53;;
71187;SDS011;58893;53.130;8.158;2023-04-24T01:55:40;3.40;;;1.90;;
71187;SDS011;58893;53.130;8.158;2023-04-24T01:58:06;2.57;;;2.10;;
71187;SDS011;58893;53.130;8.158;2023-04-24T02:00:32;2.30;;;2.00;;
71187;SDS011;58893;53.130;8.158;2023-04-24T02:02:57;2.50;;;2.10;;
71187;SDS011;58893;53.130;8.158;2023-04-24T02:05:23;2.60;;;2.23;;
71187;SDS011;58893;53.130;8.158;2023-04-24T02:07:49;2.27;;;2.07;;
71187;SDS011;58893;53.130;8.158;2023-04-24T02:10:14;3.00;;;2.13;;
71187;SDS011;58893;53.130;8.158;2023-04-24T02:12:40;2.17;;;1.97;;
71187;SDS011;58893;53.130;8.158;2023-04-24T02:15:06;2.90;;;2.60;;
71187;SDS011;58893;53.130;8.158;2023-04-24T02:17:32;4.90;;;2.20;;
71187;SDS011;58893;53.130;8.158;2023-04-24T02:19:57;3.30;;;2.70;;
71187;SDS011;58893;53.130;8.158;2023-04-24T02:22:23;2.80;;;2.50;;
71187;SDS011;58893;53.130;8.158;2023-04-24T02:24:48;2.63;;;2.43;;
71187;SDS011;58893;53.130;8.158;2023-04-24T02:27:14;3.13;;;2.73;;
71187;SDS011;58893;53.130;8.158;2023-04-24T02:29:40;2.57;;;2.37;;
71187;SDS011;58893;53.130;8.158;2023-04-24T02:32:06;3.23;;;2.67;;
71187;SDS011;58893;53.130;8.158;2023-04-24T02:34:31;2.50;;;2.30;;
71187;SDS011;58893;53.130;8.158;2023-04-24T02:36:57;2.97;;;2.60;;
71187;SDS011;58893;53.130;8.158;2023-04-24T02:39:23;3.30;;;3.00;;
71187;SDS011;58893;53.130;8.158;2023-04-24T02:41:48;4.07;;;2.93;;
71187;SDS011;58893;53.130;8.158;2023-04-24T02:44:14;3.77;;;3.03;;
71187;SDS011;58893;53.130;8.158;2023-04-24T02:46:40;3.70;;;2.80;;
71187;SDS011;58893;53.130;8.158;2023-04-24T02:49:06;4.20;;;2.80;;
71187;SDS011;58893;53.130;8.158;2023-04-24T02:51:32;5.30;;;3.50;;
71187;SDS011;58893;53.130;8.158;2023-04-24T02:53:58;6.30;;;3.60;;
71187;SDS011;58893;53.130;8.158;2023-04-24T02:56:23;4.13;;;3.20;;
71187;SDS011;58893;53.130;8.158;2023-04-24T02:58:49;4.13;;;3.50;;
71187;SDS011;58893;53.130;8.158;2023-04-24T03:01:14;4.00;;;3.07;;
71187;SDS011;58893;53.130;8.158;2023-04-24T03:03:40;6.10;;;3.50;;
71187;SDS011;58893;53.130;8.158;2023-04-24T03:06:06;4.57;;;3.33;;
71187;SDS011;58893;53.130;8.158;2023-04-24T03:08:33;3.30;;;2.93;;
71187;SDS011;58893;53.130;8.158;2023-04-24T03:10:59;4.90;;;3.60;;
71187;SDS011;58893;53.130;8.158;2023-04-24T03:13:25;5.20;;;3.70;;
71187;SDS011;58893;53.130;8.158;2023-04-24T03:15:50;5.60;;;4.00;;
71187;SDS011;58893;53.130;8.158;2023-04-24T03:18:19;7.30;;;4.43;;
71187;SDS011;58893;53.130;8.158;2023-04-24T03:20:47;6.40;;;4.13;;
71187;SDS011;58893;53.130;8.158;2023-04-24T03:23:13;5.23;;;3.43;;
71187;SDS011;58893;53.130;8.158;2023-04-24T03:25:39;4.73;;;3.70;;
71187;SDS011;58893;53.130;8.158;2023-04-24T03:28:05;4.33;;;3.60;;
71187;SDS011;58893;53.130;8.158;2023-04-24T03:30:31;7.97;;;4.30;;
71187;SDS011;58893;53.130;8.158;2023-04-24T03:32:57;4.20;;;3.30;;
71187;SDS011;58893;53.130;8.158;2023-04-24T03:35:22;9.17;;;3.70;;
71187;SDS011;58893;53.130;8.158;2023-04-24T03:37:48;4.53;;;3.30;;
71187;SDS011;58893;53.130;8.158;2023-04-24T03:40:13;6.23;;;3.70;;
71187;SDS011;58893;53.130;8.158;2023-04-24T03:42:39;7.73;;;4.20;;
71187;SDS011;58893;53.130;8.158;2023-04-24T03:45:05;6.70;;;4.17;;
71187;SDS011;58893;53.130;8.158;2023-04-24T03:47:31;5.47;;;3.90;;
71187;SDS011;58893;53.130;8.158;2023-04-24T03:49:57;4.67;;;3.00;;
71187;SDS011;58893;53.130;8.158;2023-04-24T03:52:22;6.43;;;3.50;;
71187;SDS011;58893;53.130;8.158;2023-04-24T03:54:48;5.83;;;3.60;;
71187;SDS011;58893;53.130;8.158;2023-04-24T03:57:13;5.30;;;3.60;;
71187;SDS011;58893;53.130;8.158;2023-04-24T03:59:39;5.43;;;3.30;;
71187;SDS011;58893;53.130;8.158;2023-04-24T04:02:05;6.07;;;4.30;;
71187;SDS011;58893;53.130;8.158;2023-04-24T04:04:30;4.20;;;3.57;;
71187;SDS011;58893;53.130;8.158;2023-04-24T04:06:56;8.30;;;4.50;;
71187;SDS011;58893;53.130;8.158;2023-04-24T04:09:26;8.67;;;3.30;;
71187;SDS011;58893;53.130;8.158;2023-04-24T04:11:51;5.30;;;3.53;;
71187;SDS011;58893;53.130;8.158;2023-04-24T04:14:17;4.23;;;3.07;;
71187;SDS011;58893;53.130;8.158;2023-04-24T04:16:43;8.07;;;3.60;;
71187;SDS011;58893;53.130;8.158;2023-04-24T04:19:08;5.27;;;3.40;;
71187;SDS011;58893;53.130;8.158;2023-04-24T04:21:34;6.57;;;3.60;;
71187;SDS011;58893;53.130;8.158;2023-04-24T04:24:00;6.67;;;3.90;;
71187;SDS011;58893;53.130;8.158;2023-04-24T04:26:25;5.77;;;3.60;;
71187;SDS011;58893;53.130;8.158;2023-04-24T04:28:52;4.17;;;3.53;;
71187;SDS011;58893;53.130;8.158;2023-04-24T04:31:19;4.53;;;3.87;;
71187;SDS011;58893;53.130;8.158;2023-04-24T04:33:45;4.80;;;3.17;;
71187;SDS011;58893;53.130;8.158;2023-04-24T04:36:10;5.17;;;3.87;;
71187;SDS011;58893;53.130;8.158;2023-04-24T04:38:37;5.17;;;3.87;;
71187;SDS011;58893;53.130;8.158;2023-04-24T04:41:02;4.87;;;3.50;;
71187;SDS011;58893;53.130;8.158;2023-04-24T04:43:28;11.27;;;4.57;;
71187;SDS011;58893;53.130;8.158;2023-04-24T04:45:55;6.30;;;3.90;;
71187;SDS011;58893;53.130;8.158;2023-04-24T04:48:22;6.27;;;4.60;;
71187;SDS011;58893;53.130;8.158;2023-04-24T04:50:48;9.23;;;4.53;;
71187;SDS011;58893;53.130;8.158;2023-04-24T04:53:13;8.37;;;4.60;;
71187;SDS011;58893;53.130;8.158;2023-04-24T04:55:39;6.83;;;4.47;;
71187;SDS011;58893;53.130;8.158;2023-04-24T04:58:05;8.27;;;5.40;;
71187;SDS011;58893;53.130;8.158;2023-04-24T05:00:30;7.63;;;4.07;;
71187;SDS011;58893;53.130;8.158;2023-04-24T05:03:00;4.90;;;4.30;;
71187;SDS011;58893;53.130;8.158;2023-04-24T05:05:26;8.20;;;4.40;;
71187;SDS011;58893;53.130;8.158;2023-04-24T05:07:52;5.67;;;4.07;;
71187;SDS011;58893;53.130;8.158;2023-04-24T05:10:17;7.20;;;5.27;;
71187;SDS011;58893;53.130;8.158;2023-04-24T05:12:43;8.87;;;4.43;;
71187;SDS011;58893;53.130;8.158;2023-04-24T05:15:09;12.77;;;4.87;;
71187;SDS011;58893;53.130;8.158;2023-04-24T05:17:35;9.30;;;4.90;;
71187;SDS011;58893;53.130;8.158;2023-04-24T05:20:01;6.30;;;4.10;;
71187;SDS011;58893;53.130;8.158;2023-04-24T05:22:28;8.60;;;5.60;;
71187;SDS011;58893;53.130;8.158;2023-04-24T05:24:54;6.50;;;4.00;;
71187;SDS011;58893;53.130;8.158;2023-04-24T05:27:20;6.13;;;4.30;;
71187;SDS011;58893;53.130;8.158;2023-04-24T05:29:46;11.13;;;4.30;;
71187;SDS011;58893;53.130;8.158;2023-04-24T05:32:11;6.17;;;4.50;;
71187;SDS011;58893;53.130;8.158;2023-04-24T05:34:37;5.67;;;4.20;;
71187;SDS011;58893;53.130;8.158;2023-04-24T05:37:02;8.50;;;5.17;;
71187;SDS011;58893;53.130;8.158;2023-04-24T05:39:33;9.97;;;5.27;;
71187;SDS011;58893;53.130;8.158;2023-04-24T05:41:58;10.93;;;5.10;;
71187;SDS011;58893;53.130;8.158;2023-04-24T05:44:26;7.93;;;4.97;;
71187;SDS011;58893;53.130;8.158;2023-04-24T05:46:51;9.60;;;5.70;;
71187;SDS011;58893;53.130;8.158;2023-04-24T05:49:17;9.30;;;5.27;;
71187;SDS011;58893;53.130;8.158;2023-04-24T05:51:43;8.60;;;5.33;;
71187;SDS011;58893;53.130;8.158;2023-04-24T05:54:08;7.67;;;4.73;;
71187;SDS011;58893;53.130;8.158;2023-04-24T05:56:37;8.07;;;5.03;;
71187;SDS011;58893;53.130;8.158;2023-04-24T05:59:02;7.00;;;4.97;;
71187;SDS011;58893;53.130;8.158;2023-04-24T06:01:28;11.97;;;5.87;;
71187;SDS011;58893;53.130;8.158;2023-04-24T06:03:54;10.23;;;5.67;;
71187;SDS011;58893;53.130;8.158;2023-04-24T06:06:20;9.37;;;5.03;;
71187;SDS011;58893;53.130;8.158;2023-04-24T06:08:46;9.13;;;5.07;;
71187;SDS011;58893;53.130;8.158;2023-04-24T06:11:11;6.17;;;4.00;;
71187;SDS011;58893;53.130;8.158;2023-04-24T06:13:37;7.67;;;5.23;;
71187;SDS011;58893;53.130;8.158;2023-04-24T06:16:02;8.00;;;4.90;;
71187;SDS011;58893;53.130;8.158;2023-04-24T06:18:28;10.40;;;5.60;;
71187;SDS011;58893;53.130;8.158;2023-04-24T06:20:54;7.83;;;5.30;;
71187;SDS011;58893;53.130;8.158;2023-04-24T06:23:20;12.50;;;6.23;;
71187;SDS011;58893;53.130;8.158;2023-04-24T06:25:46;6.30;;;4.47;;
71187;SDS011;58893;53.130;8.158;2023-04-24T06:28:12;9.97;;;5.87;;
71187;SDS011;58893;53.130;8.158;2023-04-24T06:30:37;9.27;;;6.23;;
71187;SDS011;58893;53.130;8.158;2023-04-24T06:33:03;9.17;;;5.57;;
71187;SDS011;58893;53.130;8.158;2023-04-24T06:35:28;9.50;;;6.10;;
71187;SDS011;58893;53.130;8.158;2023-04-24T06:37:54;7.20;;;4.80;;
71187;SDS011;58893;53.130;8.158;2023-04-24T06:40:21;15.07;;;6.07;;
71187;SDS011;58893;53.130;8.158;2023-04-24T06:42:47;10.83;;;6.20;;
71187;SDS011;58893;53.130;8.158;2023-04-24T06:45:13;9.53;;;6.00;;
71187;SDS011;58893;53.130;8.158;2023-04-24T06:47:38;7.90;;;5.70;;
71187;SDS011;58893;53.130;8.158;2023-04-24T06:50:04;8.50;;;5.47;;
71187;SDS011;58893;53.130;8.158;2023-04-24T06:52:30;10.43;;;5.33;;
71187;SDS011;58893;53.130;8.158;2023-04-24T06:55:02;8.97;;;6.07;;
71187;SDS011;58893;53.130;8.158;2023-04-24T06:57:28;10.93;;;5.60;;
71187;SDS011;58893;53.130;8.158;2023-04-24T06:59:54;11.00;;;6.60;;
71187;SDS011;58893;53.130;8.158;2023-04-24T07:02:20;11.00;;;6.40;;
71187;SDS011;58893;53.130;8.158;2023-04-24T07:04:46;11.50;;;7.03;;
71187;SDS011;58893;53.130;8.158;2023-04-24T07:07:12;10.43;;;5.67;;
71187;SDS011;58893;53.130;8.158;2023-04-24T07:09:39;9.03;;;6.17;;
71187;SDS011;58893;53.130;8.158;2023-04-24T07:12:07;9.60;;;5.60;;
71187;SDS011;58893;53.130;8.158;2023-04-24T07:14:33;12.40;;;6.37;;
71187;SDS011;58893;53.130;8.158;2023-04-24T07:16:59;10.30;;;6.53;;
71187;SDS011;58893;53.130;8.158;2023-04-24T07:19:26;8.40;;;6.07;;
71187;SDS011;58893;53.130;8.158;2023-04-24T07:21:51;8.43;;;5.37;;
71187;SDS011;58893;53.130;8.158;2023-04-24T07:24:18;8.87;;;6.23;;
71187;SDS011;58893;53.130;8.158;2023-04-24T07:26:44;9.87;;;6.77;;
71187;SDS011;58893;53.130;8.158;2023-04-24T07:29:11;13.80;;;7.10;;
71187;SDS011;58893;53.130;8.158;2023-04-24T07:31:37;10.77;;;6.63;;
71187;SDS011;58893;53.130;8.158;2023-04-24T07:34:03;12.67;;;7.20;;
71187;SDS011;58893;53.130;8.158;2023-04-24T07:36:28;12.23;;;6.23;;
71187;SDS011;58893;53.130;8.158;2023-04-24T07:38:54;15.63;;;6.90;;
71187;SDS011;58893;53.130;8.158;2023-04-24T07:41:21;10.03;;;6.27;;
71187;SDS011;58893;53.130;8.158;2023-04-24T07:43:47;12.47;;;7.10;;
71187;SDS011;58893;53.130;8.158;2023-04-24T07:46:13;12.07;;;6.80;;
71187;SDS011;58893;53.130;8.158;2023-04-24T07:48:38;10.50;;;6.80;;
71187;SDS011;58893;53.130;8.158;2023-04-24T07:51:04;12.73;;;6.83;;
71187;SDS011;58893;53.130;8.158;2023-04-24T07:53:30;11.57;;;7.87;;
71187;SDS011;58893;53.130;8.158;2023-04-24T07:55:56;11.80;;;6.33;;
71187;SDS011;58893;53.130;8.158;2023-04-24T07:58:21;8.33;;;5.77;;
71187;SDS011;58893;53.130;8.158;2023-04-24T08:00:47;11.20;;;6.87;;
71187;SDS011;58893;53.130;8.158;2023-04-24T08:03:13;8.73;;;5.53;;
71187;SDS011;58893;53.130;8.158;2023-04-24T08:05:39;9.70;;;5.90;;
71187;SDS011;58893;53.130;8.158;2023-04-24T08:08:05;9.10;;;5.67;;
71187;SDS011;58893;53.130;8.158;2023-04-24T08:10:31;10.60;;;5.70;;
71187;SDS011;58893;53.130;8.158;2023-04-24T08:12:56;10.57;;;5.50;;
71187;SDS011;58893;53.130;8.158;2023-04-24T08:15:22;9.10;;;5.50;;
71187;SDS011;58893;53.130;8.158;2023-04-24T08:17:48;11.90;;;5.93;;
71187;SDS011;58893;53.130;8.158;2023-04-24T08:20:13;8.73;;;5.67;;
71187;SDS011;58893;53.130;8.158;2023-04-24T08:22:42;6.27;;;4.67;;
71187;SDS011;58893;53.130;8.158;2023-04-24T08:25:11;11.37;;;5.80;;
71187;SDS011;58893;53.130;8.158;2023-04-24T08:27:36;9.80;;;5.13;;
71187;SDS011;58893;53.130;8.158;2023-04-24T08:30:04;6.23;;;4.90;;
71187;SDS011;58893;53.130;8.158;2023-04-24T08:32:30;8.70;;;6.10;;
71187;SDS011;58893;53.130;8.158;2023-04-24T08:34:56;7.70;;;4.80;;
71187;SDS011;58893;53.130;8.158;2023-04-24T08:37:22;7.50;;;4.60;;
71187;SDS011;58893;53.130;8.158;2023-04-24T08:39:48;7.20;;;4.00;;
71187;SDS011;58893;53.130;8.158;2023-04-24T08:42:15;7.07;;;4.50;;
71187;SDS011;58893;53.130;8.158;2023-04-24T08:44:42;5.53;;;4.17;;
71187;SDS011;58893;53.130;8.158;2023-04-24T08:47:08;16.33;;;4.50;;
71187;SDS011;58893;53.130;8.158;2023-04-24T08:49:34;7.03;;;4.70;;
71187;SDS011;58893;53.130;8.158;2023-04-24T08:52:01;6.17;;;4.37;;
71187;SDS011;58893;53.130;8.158;2023-04-24T08:54:28;7.03;;;4.03;;
71187;SDS011;58893;53.130;8.158;2023-04-24T08:56:54;7.60;;;4.50;;
71187;SDS011;58893;53.130;8.158;2023-04-24T08:59:26;6.07;;;4.53;;
71187;SDS011;58893;53.130;8.158;2023-04-24T09:01:53;4.57;;;3.43;;
71187;SDS011;58893;53.130;8.158;2023-04-24T09:04:20;9.30;;;4.43;;
71187;SDS011;58893;53.130;8.158;2023-04-24T09:06:49;7.17;;;4.87;;
71187;SDS011;58893;53.130;8.158;2023-04-24T09:09:22;8.03;;;4.07;;
71187;SDS011;58893;53.130;8.158;2023-04-24T09:11:49;5.97;;;3.63;;
71187;SDS011;58893;53.130;8.158;2023-04-24T09:14:15;4.97;;;3.60;;
71187;SDS011;58893;53.130;8.158;2023-04-24T09:16:42;6.30;;;4.10;;
71187;SDS011;58893;53.130;8.158;2023-04-24T09:19:08;12.33;;;4.40;;
71187;SDS011;58893;53.130;8.158;2023-04-24T09:21:34;6.53;;;4.70;;
71187;SDS011;58893;53.130;8.158;2023-04-24T09:24:01;5.90;;;4.20;;
71187;SDS011;58893;53.130;8.158;2023-04-24T09:26:30;8.07;;;5.33;;
71187;SDS011;58893;53.130;8.158;2023-04-24T09:28:57;6.37;;;4.13;;
71187;SDS011;58893;53.130;8.158;2023-04-24T09:31:23;4.80;;;3.53;;
71187;SDS011;58893;53.130;8.158;2023-04-24T09:36:32;11.20;;;5.10;;
71187;SDS011;58893;53.130;8.158;2023-04-24T09:39:03;9.60;;;4.60;;
71187;SDS011;58893;53.130;8.158;2023-04-24T09:41:31;7.20;;;4.90;;
71187;SDS011;58893;53.130;8.158;2023-04-24T09:44:09;6.27;;;4.20;;
71187;SDS011;58893;53.130;8.158;2023-04-24T09:46:43;7.10;;;4.60;;
71187;SDS011;58893;53.130;8.158;2023-04-24T09:49:14;6.23;;;4.37;;
71187;SDS011;58893;53.130;8.158;2023-04-24T09:51:41;7.13;;;4.40;;
71187;SDS011;58893;53.130;8.158;2023-04-24T09:54:20;6.40;;;3.90;;
71187;SDS011;58893;53.130;8.158;2023-04-24T09:56:48;4.43;;;3.30;;
71187;SDS011;58893;53.130;8.158;2023-04-24T09:59:14;5.30;;;3.77;;
71187;SDS011;58893;53.130;8.158;2023-04-24T10:01:41;7.67;;;4.07;;
71187;SDS011;58893;53.130;8.158;2023-04-24T10:04:20;6.93;;;4.10;;
71187;SDS011;58893;53.130;8.158;2023-04-24T10:06:50;4.37;;;3.17;;
71187;SDS011;58893;53.130;8.158;2023-04-24T10:09:18;7.27;;;3.50;;
71187;SDS011;58893;53.130;8.158;2023-04-24T10:11:54;10.00;;;3.03;;
71187;SDS011;58893;53.130;8.158;2023-04-24T10:14:21;4.70;;;3.07;;
71187;SDS011;58893;53.130;8.158;2023-04-24T10:16:54;6.10;;;3.40;;
71187;SDS011;58893;53.130;8.158;2023-04-24T10:19:21;10.33;;;2.47;;
71187;SDS011;58893;53.130;8.158;2023-04-24T10:21:50;5.63;;;2.90;;
71187;SDS011;58893;53.130;8.158;2023-04-24T10:24:17;3.30;;;2.60;;
71187;SDS011;58893;53.130;8.158;2023-04-24T10:26:46;3.00;;;2.20;;
71187;SDS011;58893;53.130;8.158;2023-04-24T10:29:14;4.77;;;1.90;;
71187;SDS011;58893;53.130;8.158;2023-04-24T10:31:42;2.73;;;2.03;;
71187;SDS011;58893;53.130;8.158;2023-04-24T10:34:10;3.00;;;1.90;;
71187;SDS011;58893;53.130;8.158;2023-04-24T10:36:38;3.47;;;2.13;;
71187;SDS011;58893;53.130;8.158;2023-04-24T10:39:08;2.97;;;1.97;;
71187;SDS011;58893;53.130;8.158;2023-04-24T10:41:37;1.93;;;1.77;;
71187;SDS011;58893;53.130;8.158;2023-04-24T10:44:04;5.63;;;2.23;;
71187;SDS011;58893;53.130;8.158;2023-04-24T10:46:34;6.23;;;2.57;;
71187;SDS011;58893;53.130;8.158;2023-04-24T10:49:07;2.50;;;1.93;;
71187;SDS011;58893;53.130;8.158;2023-04-24T10:51:46;3.10;;;2.30;;
71187;SDS011;58893;53.130;8.158;2023-04-24T10:56:50;4.13;;;2.30;;
71187;SDS011;58893;53.130;8.158;2023-04-24T10:59:34;3.50;;;2.30;;
71187;SDS011;58893;53.130;8.158;2023-04-24T11:02:02;2.77;;;2.00;;
71187;SDS011;58893;53.130;8.158;2023-04-24T11:04:31;3.40;;;2.20;;
71187;SDS011;58893;53.130;8.158;2023-04-24T11:06:57;2.60;;;1.93;;
71187;SDS011;58893;53.130;8.158;2023-04-24T11:09:26;3.50;;;2.37;;
71187;SDS011;58893;53.130;8.158;2023-04-24T11:12:02;3.33;;;2.27;;
71187;SDS011;58893;53.130;8.158;2023-04-24T11:14:31;5.40;;;2.57;;
71187;SDS011;58893;53.130;8.158;2023-04-24T11:17:30;3.53;;;2.63;;
71187;SDS011;58893;53.130;8.158;2023-04-24T11:20:05;3.70;;;2.70;;
71187;SDS011;58893;53.130;8.158;2023-04-24T11:22:36;5.80;;;2.37;;
71187;SDS011;58893;53.130;8.158;2023-04-24T11:25:05;4.80;;;3.03;;
71187;SDS011;58893;53.130;8.158;2023-04-24T11:27:32;6.17;;;2.77;;
71187;SDS011;58893;53.130;8.158;2023-04-24T11:30:06;2.97;;;2.30;;
71187;SDS011;58893;53.130;8.158;2023-04-24T11:37:28;4.73;;;2.50;;
71187;SDS011;58893;53.130;8.158;2023-04-24T11:39:58;5.40;;;1.93;;
71187;SDS011;58893;53.130;8.158;2023-04-24T11:42:24;2.60;;;1.87;;
71187;SDS011;58893;53.130;8.158;2023-04-24T11:44:53;3.17;;;1.60;;
71187;SDS011;58893;53.130;8.158;2023-04-24T11:47:29;2.10;;;1.50;;
71187;SDS011;58893;53.130;8.158;2023-04-24T11:49:55;4.93;;;1.60;;
71187;SDS011;58893;53.130;8.158;2023-04-24T11:52:21;8.10;;;2.93;;
71187;SDS011;58893;53.130;8.158;2023-04-24T11:54:50;6.37;;;3.13;;
71187;SDS011;58893;53.130;8.158;2023-04-24T11:57:16;8.77;;;4.23;;
71187;SDS011;58893;53.130;8.158;2023-04-24T11:59:46;6.23;;;3.73;;
71187;SDS011;58893;53.130;8.158;2023-04-24T12:02:21;9.17;;;4.70;;
71187;SDS011;58893;53.130;8.158;2023-04-24T12:04:54;8.90;;;5.50;;
71187;SDS011;58893;53.130;8.158;2023-04-24T12:07:20;13.77;;;5.20;;
71187;SDS011;58893;53.130;8.158;2023-04-24T12:10:04;9.93;;;5.77;;
71187;SDS011;58893;53.130;8.158;2023-04-24T12:12:30;8.47;;;5.87;;
71187;SDS011;58893;53.130;8.158;2023-04-24T12:14:57;11.90;;;5.80;;
71187;SDS011;58893;53.130;8.158;2023-04-24T12:17:27;10.70;;;6.13;;
71187;SDS011;58893;53.130;8.158;2023-04-24T12:19:58;10.60;;;5.30;;
71187;SDS011;58893;53.130;8.158;2023-04-24T12:22:26;12.00;;;6.37;;
71187;SDS011;58893;53.130;8.158;2023-04-24T12:25:02;14.63;;;6.70;;
71187;SDS011;58893;53.130;8.158;2023-04-24T12:27:32;13.57;;;7.90;;
71187;SDS011;58893;53.130;8.158;2023-04-24T12:29:59;11.27;;;6.50;;
71187;SDS011;58893;53.130;8.158;2023-04-24T12:32:25;13.90;;;7.17;;
71187;SDS011;58893;53.130;8.158;2023-04-24T12:34:52;10.80;;;5.43;;
71187;SDS011;58893;53.130;8.158;2023-04-24T12:37:19;10.30;;;4.23;;
71187;SDS011;58893;53.130;8.158;2023-04-24T12:40:30;9.13;;;4.23;;
71187;SDS011;58893;53.130;8.158;2023-04-24T12:42:32;12.03;;;5.83;;
71187;SDS011;58893;53.130;8.158;2023-04-24T12:45:03;15.37;;;4.53;;
71187;SDS011;58893;53.130;8.158;2023-04-24T12:47:33;8.17;;;4.30;;
71187;SDS011;58893;53.130;8.158;2023-04-24T12:50:00;20.03;;;4.80;;
71187;SDS011;58893;53.130;8.158;2023-04-24T12:52:27;11.77;;;3.70;;
71187;SDS011;58893;53.130;8.158;2023-04-24T12:54:54;7.87;;;3.90;;
71187;SDS011;58893;53.130;8.158;2023-04-24T12:57:24;12.30;;;4.53;;
71187;SDS011;58893;53.130;8.158;2023-04-24T12:59:53;13.33;;;4.60;;
71187;SDS011;58893;53.130;8.158;2023-04-24T13:02:20;10.17;;;4.00;;
71187;SDS011;58893;53.130;8.158;2023-04-24T13:04:47;9.00;;;4.30;;
71187;SDS011;58893;53.130;8.158;2023-04-24T13:07:13;18.20;;;4.67;;
71187;SDS011;58893;53.130;8.158;2023-04-24T13:09:39;10.90;;;4.60;;
71187;SDS011;58893;53.130;8.158;2023-04-24T13:12:06;9.50;;;3.83;;
71187;SDS011;58893;53.130;8.158;2023-04-24T13:14:33;10.03;;;3.70;;
71187;SDS011;58893;53.130;8.158;2023-04-24T13:16:59;10.93;;;4.47;;
71187;SDS011;58893;53.130;8.158;2023-04-24T13:19:25;10.83;;;3.40;;
71187;SDS011;58893;53.130;8.158;2023-04-24T13:21:51;10.20;;;4.20;;
71187;SDS011;58893;53.130;8.158;2023-04-24T13:24:18;9.97;;;4.10;;
71187;SDS011;58893;53.130;8.158;2023-04-24T13:26:45;7.93;;;4.47;;
71187;SDS011;58893;53.130;8.158;2023-04-24T13:29:10;8.43;;;4.37;;
71187;SDS011;58893;53.130;8.158;2023-04-24T13:31:36;14.97;;;3.70;;
71187;SDS011;58893;53.130;8.158;2023-04-24T13:34:02;5.33;;;3.07;;
71187;SDS011;58893;53.130;8.158;2023-04-24T13:36:28;17.80;;;3.53;;
71187;SDS011;58893;53.130;8.158;2023-04-24T13:38:55;5.60;;;2.93;;
71187;SDS011;58893;53.130;8.158;2023-04-24T13:41:20;10.40;;;3.30;;
71187;SDS011;58893;53.130;8.158;2023-04-24T13:43:46;9.00;;;3.27;;
71187;SDS011;58893;53.130;8.158;2023-04-24T13:46:12;8.30;;;3.20;;
71187;SDS011;58893;53.130;8.158;2023-04-24T13:48:37;9.70;;;3.17;;
71187;SDS011;58893;53.130;8.158;2023-04-24T13:51:03;8.90;;;3.20;;
71187;SDS011;58893;53.130;8.158;2023-04-24T13:53:29;6.50;;;3.30;;
71187;SDS011;58893;53.130;8.158;2023-04-24T13:55:54;10.07;;;3.43;;
71187;SDS011;58893;53.130;8.158;2023-04-24T13:58:20;10.57;;;2.60;;
71187;SDS011;58893;53.130;8.158;2023-04-24T14:00:46;9.03;;;3.80;;
71187;SDS011;58893;53.130;8.158;2023-04-24T14:03:12;16.40;;;3.20;;
71187;SDS011;58893;53.130;8.158;2023-04-24T14:05:37;4.00;;;2.50;;
71187;SDS011;58893;53.130;8.158;2023-04-24T14:08:04;6.10;;;3.43;;
71187;SDS011;58893;53.130;8.158;2023-04-24T14:10:30;10.33;;;3.47;;
71187;SDS011;58893;53.130;8.158;2023-04-24T14:12:56;16.90;;;3.10;;
71187;SDS011;58893;53.130;8.158;2023-04-24T14:15:22;7.77;;;2.63;;
71187;SDS011;58893;53.130;8.158;2023-04-24T14:17:48;8.53;;;3.03;;
71187;SDS011;58893;53.130;8.158;2023-04-24T14:20:14;10.07;;;3.27;;
71187;SDS011;58893;53.130;8.158;2023-04-24T14:22:40;8.03;;;2.53;;
71187;SDS011;58893;53.130;8.158;2023-04-24T14:25:06;4.23;;;2.37;;
71187;SDS011;58893;53.130;8.158;2023-04-24T14:27:32;11.30;;;2.00;;
71187;SDS011;58893;53.130;8.158;2023-04-24T14:29:59;4.53;;;2.20;;
71187;SDS011;58893;53.130;8.158;2023-04-24T14:32:25;4.63;;;2.33;;
71187;SDS011;58893;53.130;8.158;2023-04-24T14:34:51;11.23;;;2.47;;
71187;SDS011;58893;53.130;8.158;2023-04-24T14:37:16;3.80;;;2.33;;
71187;SDS011;58893;53.130;8.158;2023-04-24T14:39:42;3.40;;;1.97;;
71187;SDS011;58893;53.130;8.158;2023-04-24T14:42:07;2.60;;;1.40;;
71187;SDS011;58893;53.130;8.158;2023-04-24T14:44:33;8.57;;;2.07;;
71187;SDS011;58893;53.130;8.158;2023-04-24T14:46:59;8.33;;;1.70;;
71187;SDS011;58893;53.130;8.158;2023-04-24T14:49:25;17.70;;;2.50;;
71187;SDS011;58893;53.130;8.158;2023-04-24T14:51:51;7.63;;;2.10;;
71187;SDS011;58893;53.130;8.158;2023-04-24T14:54:17;3.17;;;1.60;;